createdAt,value
2017-04-12T00:00:31.125Z,736.02
2017-04-12T00:01:31.104Z,736.06
2017-04-12T00:02:31.083Z,736.04
2017-04-12T00:03:31.064Z,736.02
2017-04-12T00:04:31.044Z,736.15
2017-04-12T00:05:31.024Z,736.12
2017-04-12T00:06:31.004Z,735.94
2017-04-12T00:07:30.983Z,736.01
2017-04-12T00:08:30.963Z,735.98
2017-04-12T00:09:30.942Z,736.02
2017-04-12T00:10:30.923Z,735.89
2017-04-12T00:11:30.902Z,735.96
2017-04-12T00:12:30.881Z,735.94
2017-04-12T00:13:30.863Z,735.96
2017-04-12T00:14:30.843Z,735.98
2017-04-12T00:15:30.824Z,735.96
2017-04-12T00:16:30.803Z,735.89
2017-04-12T00:17:30.783Z,735.95
2017-04-12T00:18:30.763Z,735.85
2017-04-12T00:19:30.743Z,735.89
2017-04-12T00:20:30.723Z,735.83
2017-04-12T00:21:30.704Z,735.86
2017-04-12T00:22:30.684Z,735.86
2017-04-12T00:23:30.661Z,735.92
2017-04-12T00:24:30.643Z,735.85
2017-04-12T00:25:30.623Z,735.85
2017-04-12T00:26:30.602Z,735.83
2017-04-12T00:27:30.582Z,735.82
2017-04-12T00:28:30.562Z,735.78
2017-04-12T00:29:30.543Z,735.75
2017-04-12T00:30:30.524Z,735.8
2017-04-12T00:31:30.503Z,735.78
2017-04-12T00:32:30.483Z,735.73
2017-04-12T00:33:30.464Z,735.81
2017-04-12T00:34:30.443Z,735.78
2017-04-12T00:35:30.423Z,735.82
2017-04-12T00:36:30.403Z,735.83
2017-04-12T00:37:30.383Z,735.79
2017-04-12T00:38:30.365Z,735.77
2017-04-12T00:39:30.343Z,735.82
2017-04-12T00:40:30.326Z,735.78
2017-04-12T00:41:30.304Z,735.77
2017-04-12T00:42:30.283Z,735.88
2017-04-12T00:43:30.264Z,735.84
2017-04-12T00:44:30.245Z,735.87
2017-04-12T00:45:30.224Z,735.82
2017-04-12T00:46:30.204Z,735.88
2017-04-12T00:47:30.185Z,735.89
2017-04-12T00:48:30.166Z,735.87
2017-04-12T00:49:30.145Z,735.87
2017-04-12T00:50:30.126Z,735.83
2017-04-12T00:51:30.106Z,735.85
2017-04-12T00:52:30.086Z,735.77
2017-04-12T00:53:30.066Z,735.76
2017-04-12T00:54:30.047Z,735.84
2017-04-12T00:55:30.027Z,735.83
2017-04-12T00:56:30.008Z,735.78
2017-04-12T00:57:29.988Z,735.81
2017-04-12T00:58:29.969Z,735.77
2017-04-12T00:59:29.949Z,735.81
2017-04-12T01:00:29.928Z,735.81
2017-04-12T01:01:29.908Z,735.83
2017-04-12T01:02:29.890Z,735.8
2017-04-12T01:03:29.869Z,735.8
2017-04-12T01:04:29.851Z,735.7
2017-04-12T01:05:29.830Z,735.85
2017-04-12T01:06:29.812Z,735.79
2017-04-12T01:07:29.791Z,735.78
2017-04-12T01:08:29.772Z,735.8
2017-04-12T01:09:29.753Z,735.79
2017-04-12T01:10:29.731Z,735.81
2017-04-12T01:11:29.713Z,735.74
2017-04-12T01:12:29.694Z,735.78
2017-04-12T01:13:29.674Z,735.78
2017-04-12T01:14:29.654Z,735.76
2017-04-12T01:15:29.635Z,735.8
2017-04-12T01:16:29.615Z,735.82
2017-04-12T01:17:29.595Z,735.82
2017-04-12T01:18:29.574Z,735.77
2017-04-12T01:19:29.556Z,735.71
2017-04-12T01:20:29.536Z,735.7
2017-04-12T01:21:29.517Z,735.72
2017-04-12T01:22:29.496Z,735.7
2017-04-12T01:23:29.477Z,735.65
2017-04-12T01:24:29.456Z,735.72
2017-04-12T01:25:29.436Z,735.68
2017-04-12T01:26:29.418Z,735.7
2017-04-12T01:27:29.397Z,735.65
2017-04-12T01:28:29.379Z,735.71
2017-04-12T01:29:29.358Z,735.72
2017-04-12T01:30:29.339Z,735.73
2017-04-12T01:31:29.318Z,735.7
2017-04-12T01:32:29.300Z,735.71
2017-04-12T01:33:29.280Z,735.69
2017-04-12T01:34:29.259Z,735.61
2017-04-12T01:35:29.242Z,735.67
2017-04-12T01:36:29.220Z,735.7
2017-04-12T01:37:29.203Z,735.65
2017-04-12T01:38:29.182Z,735.66
2017-04-12T01:39:29.162Z,735.64
2017-04-12T01:40:29.143Z,735.62
2017-04-12T01:41:29.124Z,735.61
2017-04-12T01:42:29.102Z,735.65
2017-04-12T01:43:29.084Z,735.61
2017-04-12T01:44:29.064Z,735.61
2017-04-12T01:45:29.046Z,735.62
2017-04-12T01:46:29.026Z,735.52
2017-04-12T01:47:29.007Z,735.61
2017-04-12T01:48:28.986Z,735.57
2017-04-12T01:49:28.968Z,735.52
2017-04-12T01:50:28.955Z,735.55
2017-04-12T01:51:28.928Z,735.56
2017-04-12T01:52:28.910Z,735.51
2017-04-12T01:53:28.891Z,735.37
2017-04-12T01:54:28.872Z,735.46
2017-04-12T01:55:28.853Z,735.47
2017-04-12T01:56:28.832Z,735.45
2017-04-12T01:57:28.812Z,735.42
2017-04-12T01:58:28.793Z,735.4
2017-04-12T01:59:28.773Z,735.48
2017-04-12T02:00:28.755Z,735.42
2017-04-12T02:01:28.736Z,735.44
2017-04-12T02:02:28.716Z,735.45
2017-04-12T02:03:28.700Z,735.45
2017-04-12T02:04:28.682Z,735.46
2017-04-12T02:05:28.658Z,735.41
2017-04-12T02:06:28.638Z,735.45
2017-04-12T02:07:28.619Z,735.45
2017-04-12T02:08:28.599Z,735.41
2017-04-12T02:09:28.582Z,735.37
2017-04-12T02:10:28.561Z,735.39
2017-04-12T02:11:28.541Z,735.4
2017-04-12T02:12:28.522Z,735.38
2017-04-12T02:13:28.502Z,735.33
2017-04-12T02:14:28.484Z,735.44
2017-04-12T02:15:28.463Z,735.41
2017-04-12T02:16:28.445Z,735.3
2017-04-12T02:17:28.425Z,735.32
2017-04-12T02:18:28.405Z,735.37
2017-04-12T02:19:28.387Z,735.41
2017-04-12T02:20:28.367Z,735.3
2017-04-12T02:21:28.348Z,735.36
2017-04-12T02:22:28.328Z,735.36
2017-04-12T02:23:28.310Z,735.36
2017-04-12T02:24:28.290Z,735.43
2017-04-12T02:25:28.271Z,735.38
2017-04-12T02:26:28.251Z,735.37
2017-04-12T02:27:28.233Z,735.32
2017-04-12T02:28:28.212Z,735.31
2017-04-12T02:29:28.193Z,735.27
2017-04-12T02:30:28.174Z,735.33
2017-04-12T02:31:28.153Z,735.36
2017-04-12T02:32:28.135Z,735.4
2017-04-12T02:33:28.115Z,735.35
2017-04-12T02:34:28.098Z,735.37
2017-04-12T02:35:28.077Z,735.39
2017-04-12T02:36:28.057Z,735.35
2017-04-12T02:37:28.039Z,735.39
2017-04-12T02:38:28.020Z,735.36
2017-04-12T02:39:28.001Z,735.34
2017-04-12T02:40:27.981Z,735.4
2017-04-12T02:41:28.164Z,735.41
2017-04-12T02:42:27.943Z,735.33
2017-04-12T02:43:27.923Z,735.34
2017-04-12T02:44:27.903Z,735.35
2017-04-12T02:45:27.884Z,735.33
2017-04-12T02:46:27.865Z,735.35
2017-04-12T02:47:27.846Z,735.32
2017-04-12T02:48:27.827Z,735.33
2017-04-12T02:49:27.806Z,735.31
2017-04-12T02:50:27.787Z,735.17
2017-04-12T02:51:27.769Z,735.25
2017-04-12T02:52:27.750Z,735.22
2017-04-12T02:53:27.729Z,735.23
2017-04-12T02:54:27.710Z,735.24
2017-04-12T02:55:27.691Z,735.24
2017-04-12T02:56:27.672Z,735.29
2017-04-12T02:57:27.651Z,735.26
2017-04-12T02:58:27.632Z,735.31
2017-04-12T02:59:27.613Z,735.23
2017-04-12T03:00:27.593Z,735.19
2017-04-12T03:01:27.575Z,735.27
2017-04-12T03:02:27.556Z,735.21
2017-04-12T03:03:27.535Z,735.26
2017-04-12T03:04:27.517Z,735.16
2017-04-12T03:05:27.498Z,735.23
2017-04-12T03:06:27.480Z,735.22
2017-04-12T03:07:27.458Z,735.21
2017-04-12T03:08:27.440Z,735.27
2017-04-12T03:09:27.421Z,735.22
2017-04-12T03:10:27.401Z,735.19
2017-04-12T03:11:27.382Z,735.23
2017-04-12T03:12:27.363Z,735.24
2017-04-12T03:13:27.344Z,735.22
2017-04-12T03:14:27.325Z,735.17
2017-04-12T03:15:27.305Z,735.22
2017-04-12T03:16:27.287Z,735.21
2017-04-12T03:17:27.268Z,735.21
2017-04-12T03:18:27.248Z,735.26
2017-04-12T03:19:27.229Z,735.23
2017-04-12T03:20:27.211Z,735.18
2017-04-12T03:21:27.191Z,735.24
2017-04-12T03:22:27.172Z,735.19
2017-04-12T03:23:27.153Z,735.2
2017-04-12T03:24:27.133Z,735.24
2017-04-12T03:25:27.115Z,735.16
2017-04-12T03:26:27.094Z,735.21
2017-04-12T03:27:27.076Z,735.18
2017-04-12T03:28:27.058Z,735.13
2017-04-12T03:29:27.039Z,735.16
2017-04-12T03:30:27.018Z,735.17
2017-04-12T03:31:27.000Z,735.14
2017-04-12T03:32:26.981Z,735.19
2017-04-12T03:33:26.961Z,735.1
2017-04-12T03:34:26.943Z,735.17
2017-04-12T03:35:26.924Z,735.21
2017-04-12T03:36:26.905Z,735.23
2017-04-12T03:37:26.885Z,735.19
2017-04-12T03:38:26.866Z,735.16
2017-04-12T03:39:26.848Z,735.17
2017-04-12T03:40:26.831Z,735.17
2017-04-12T03:41:26.809Z,735.19
2017-04-12T03:42:26.790Z,735.16
2017-04-12T03:43:26.772Z,735.28
2017-04-12T03:44:26.752Z,735.17
2017-04-12T03:45:26.732Z,735.21
2017-04-12T03:46:26.713Z,735.26
2017-04-12T03:47:26.694Z,735.18
2017-04-12T03:48:26.676Z,735.22
2017-04-12T03:49:26.656Z,735.27
2017-04-12T03:50:26.638Z,735.22
2017-04-12T03:51:26.619Z,735.3
2017-04-12T03:52:26.599Z,735.28
2017-04-12T03:53:26.581Z,735.3
2017-04-12T03:54:26.563Z,735.26
2017-04-12T03:55:26.543Z,735.25
2017-04-12T03:56:26.523Z,735.25
2017-04-12T03:57:26.504Z,735.31
2017-04-12T03:58:26.486Z,735.2
2017-04-12T03:59:26.468Z,735.26
2017-04-12T04:00:26.448Z,735.32
2017-04-12T04:01:26.430Z,735.22
2017-04-12T04:02:26.413Z,735.18
2017-04-12T04:03:26.392Z,735.26
2017-04-12T04:04:26.374Z,735.27
2017-04-12T04:05:26.355Z,735.25
2017-04-12T04:06:26.334Z,735.27
2017-04-12T04:07:26.316Z,735.31
2017-04-12T04:08:26.298Z,735.3
2017-04-12T04:09:26.279Z,735.37
2017-04-12T04:10:26.259Z,735.34
2017-04-12T04:11:26.241Z,735.35
2017-04-12T04:12:26.222Z,735.32
2017-04-12T04:13:26.204Z,735.32
2017-04-12T04:14:26.186Z,735.35
2017-04-12T04:15:26.167Z,735.37
2017-04-12T04:16:26.149Z,735.38
2017-04-12T04:17:26.128Z,735.37
2017-04-12T04:18:26.111Z,735.32
2017-04-12T04:19:26.093Z,735.39
2017-04-12T04:20:26.075Z,735.43
2017-04-12T04:21:26.056Z,735.35
2017-04-12T04:22:26.037Z,735.42
2017-04-12T04:23:26.018Z,735.41
2017-04-12T04:24:25.998Z,735.4
2017-04-12T04:25:25.980Z,735.44
2017-04-12T04:26:25.962Z,735.44
2017-04-12T04:27:25.943Z,735.48
2017-04-12T04:28:25.925Z,735.38
2017-04-12T04:29:25.906Z,735.37
2017-04-12T04:30:25.888Z,735.51
2017-04-12T04:31:25.870Z,735.37
2017-04-12T04:32:25.850Z,735.46
2017-04-12T04:33:25.833Z,735.35
2017-04-12T04:34:25.813Z,735.47
2017-04-12T04:35:25.795Z,735.42
2017-04-12T04:36:25.778Z,735.37
2017-04-12T04:37:25.759Z,735.41
2017-04-12T04:38:25.740Z,735.47
2017-04-12T04:39:25.721Z,735.48
2017-04-12T04:40:25.704Z,735.41
2017-04-12T04:41:25.686Z,735.47
2017-04-12T04:42:25.667Z,735.35
2017-04-12T04:43:25.649Z,735.47
2017-04-12T04:44:25.631Z,735.35
2017-04-12T04:45:25.613Z,735.4
2017-04-12T04:46:25.593Z,735.18
2017-04-12T04:47:25.576Z,735.31
2017-04-12T04:48:25.558Z,735.39
2017-04-12T04:49:25.543Z,735.32
2017-04-12T04:50:25.520Z,735.38
2017-04-12T04:51:25.503Z,735.42
2017-04-12T04:52:25.486Z,735.43
2017-04-12T04:53:25.467Z,735.48
2017-04-12T04:54:25.447Z,735.35
2017-04-12T04:55:25.431Z,735.36
2017-04-12T04:56:25.413Z,735.32
2017-04-12T04:57:25.393Z,735.5
2017-04-12T04:58:25.376Z,735.34
2017-04-12T04:59:25.358Z,735.54
2017-04-12T05:00:25.341Z,735.29
2017-04-12T05:01:25.321Z,735.37
2017-04-12T05:02:25.303Z,735.32
2017-04-12T05:03:25.286Z,735.35
2017-04-12T05:04:25.270Z,735.51
2017-04-12T05:05:25.249Z,735.52
2017-04-12T05:06:25.232Z,735.44
2017-04-12T05:07:25.214Z,735.38
2017-04-12T05:08:25.195Z,735.45
2017-04-12T05:09:25.178Z,735.39
2017-04-12T05:10:25.161Z,735.38
2017-04-12T05:11:25.143Z,735.42
2017-04-12T05:12:25.126Z,735.43
2017-04-12T05:13:25.108Z,735.42
2017-04-12T05:14:25.090Z,735.35
2017-04-12T05:15:25.072Z,735.35
2017-04-12T05:16:25.053Z,735.45
2017-04-12T05:17:25.035Z,735.36
2017-04-12T05:18:25.017Z,735.4
2017-04-12T05:19:24.998Z,735.43
2017-04-12T05:20:24.982Z,735.46
2017-04-12T05:21:24.965Z,735.45
2017-04-12T05:22:24.947Z,735.44
2017-04-12T05:23:24.928Z,735.45
2017-04-12T05:24:24.911Z,735.37
2017-04-12T05:25:24.894Z,735.38
2017-04-12T05:26:24.876Z,735.44
2017-04-12T05:27:24.858Z,735.47
2017-04-12T05:28:24.840Z,735.46
2017-04-12T05:29:24.821Z,735.56
2017-04-12T05:30:24.804Z,735.42
2017-04-12T05:31:24.786Z,735.48
2017-04-12T05:32:24.769Z,735.49
2017-04-12T05:33:24.750Z,735.53
2017-04-12T05:34:24.733Z,735.51
2017-04-12T05:35:24.716Z,735.58
2017-04-12T05:36:24.696Z,735.47
2017-04-12T05:37:24.679Z,735.45
2017-04-12T05:38:24.661Z,735.54
2017-04-12T05:39:24.642Z,735.53
2017-04-12T05:40:24.626Z,735.49
2017-04-12T05:41:24.607Z,735.6
2017-04-12T05:42:24.589Z,735.53
2017-04-12T05:43:24.571Z,735.68
2017-04-12T05:44:24.555Z,735.45
2017-04-12T05:45:24.535Z,735.55
2017-04-12T05:46:24.519Z,735.47
2017-04-12T05:47:24.501Z,735.57
2017-04-12T05:48:24.483Z,735.48
2017-04-12T05:49:24.466Z,735.6
2017-04-12T05:50:24.448Z,735.57
2017-04-12T05:51:24.430Z,735.45
2017-04-12T05:52:24.412Z,735.57
2017-04-12T05:53:24.393Z,735.62
2017-04-12T05:54:24.377Z,735.58
2017-04-12T05:55:24.359Z,735.56
2017-04-12T05:56:24.341Z,735.63
2017-04-12T05:57:24.324Z,735.56
2017-04-12T05:58:24.306Z,735.61
2017-04-12T05:59:24.286Z,735.57
2017-04-12T06:00:24.270Z,735.55
2017-04-12T06:01:24.253Z,735.6
2017-04-12T06:02:24.234Z,735.55
2017-04-12T06:03:24.215Z,735.55
2017-04-12T06:04:24.199Z,735.54
2017-04-12T06:05:24.182Z,735.58
2017-04-12T06:06:24.164Z,735.6
2017-04-12T06:07:24.145Z,735.63
2017-04-12T06:08:24.129Z,735.6
2017-04-12T06:09:24.112Z,735.57
2017-04-12T06:10:24.093Z,735.6
2017-04-12T06:11:24.077Z,735.64
2017-04-12T06:12:24.059Z,735.65
2017-04-12T06:13:24.043Z,735.52
2017-04-12T06:14:24.025Z,735.65
2017-04-12T06:15:24.009Z,735.64
2017-04-12T06:16:23.990Z,735.68
2017-04-12T06:17:23.973Z,735.64
2017-04-12T06:18:23.956Z,735.57
2017-04-12T06:19:23.943Z,735.65
2017-04-12T06:20:23.925Z,735.6
2017-04-12T06:21:23.905Z,735.58
2017-04-12T06:22:23.887Z,735.59
2017-04-12T06:23:23.871Z,735.61
2017-04-12T06:24:23.856Z,735.58
2017-04-12T06:25:23.838Z,735.59
2017-04-12T06:26:23.822Z,735.58
2017-04-12T06:27:23.806Z,735.61
2017-04-12T06:28:23.789Z,735.63
2017-04-12T06:29:23.772Z,735.64
2017-04-12T06:30:23.757Z,735.64
2017-04-12T06:31:23.740Z,735.6
2017-04-12T06:32:23.723Z,735.68
2017-04-12T06:33:23.708Z,735.63
2017-04-12T06:34:23.692Z,735.61
2017-04-12T06:35:23.675Z,735.56
2017-04-12T06:36:23.658Z,735.64
2017-04-12T06:37:23.643Z,735.58
2017-04-12T06:38:23.627Z,735.65
2017-04-12T06:39:23.611Z,735.57
2017-04-12T06:40:23.595Z,735.63
2017-04-12T06:41:23.579Z,735.61
2017-04-12T06:42:23.562Z,735.66
2017-04-12T06:43:23.554Z,735.62
2017-04-12T06:44:23.531Z,735.63
2017-04-12T06:45:23.513Z,735.67
2017-04-12T06:46:23.504Z,735.6
2017-04-12T06:47:23.482Z,735.7
2017-04-12T06:48:23.467Z,735.68
2017-04-12T06:49:23.451Z,735.68
2017-04-12T06:50:23.435Z,735.68
2017-04-12T06:51:23.418Z,735.63
2017-04-12T06:52:23.403Z,735.66
2017-04-12T06:53:23.387Z,735.69
2017-04-12T06:54:23.370Z,735.71
2017-04-12T06:55:23.357Z,735.66
2017-04-12T06:56:23.339Z,735.64
2017-04-12T06:57:23.363Z,735.63
2017-04-12T06:58:23.307Z,735.66
2017-04-12T06:59:23.294Z,735.66
2017-04-12T07:00:23.280Z,735.63
2017-04-12T07:01:23.260Z,735.69
2017-04-12T07:02:23.245Z,735.63
2017-04-12T07:03:23.229Z,735.63
2017-04-12T07:04:23.213Z,735.67
2017-04-12T07:05:23.198Z,735.66
2017-04-12T07:06:23.181Z,735.72
2017-04-12T07:07:23.164Z,735.74
2017-04-12T07:08:23.150Z,735.68
2017-04-12T07:09:23.131Z,735.72
2017-04-12T07:10:23.117Z,735.69
2017-04-12T07:11:23.100Z,735.77
2017-04-12T07:12:23.086Z,735.68
2017-04-12T07:13:23.070Z,735.74
2017-04-12T07:14:23.053Z,735.63
2017-04-12T07:15:23.039Z,735.56
2017-04-12T07:16:23.022Z,735.6
2017-04-12T07:17:23.005Z,735.66
2017-04-12T07:18:22.989Z,735.65
2017-04-12T07:19:22.974Z,735.75
2017-04-12T07:20:22.958Z,735.73
2017-04-12T07:21:22.942Z,735.73
2017-04-12T07:22:22.926Z,735.73
2017-04-12T07:23:22.910Z,735.81
2017-04-12T07:24:22.931Z,735.77
2017-04-12T07:25:22.881Z,735.8
2017-04-12T07:26:22.866Z,735.8
2017-04-12T07:27:22.850Z,735.79
2017-04-12T07:28:22.835Z,735.77
2017-04-12T07:29:22.819Z,735.73
2017-04-12T07:30:22.807Z,735.81
2017-04-12T07:31:22.791Z,735.88
2017-04-12T07:32:22.775Z,735.76
2017-04-12T07:33:22.761Z,735.89
2017-04-12T07:34:22.748Z,735.88
2017-04-12T07:35:22.733Z,735.95
2017-04-12T07:36:22.720Z,735.89
2017-04-12T07:37:22.705Z,735.9
2017-04-12T07:38:22.691Z,735.87
2017-04-12T07:39:22.677Z,735.88
2017-04-12T07:40:22.663Z,735.86
2017-04-12T07:41:22.651Z,735.9
2017-04-12T07:42:22.635Z,735.86
2017-04-12T07:43:22.621Z,735.91
2017-04-12T07:44:22.608Z,735.91
2017-04-12T07:45:22.592Z,735.9
2017-04-12T07:46:22.580Z,735.76
2017-04-12T07:47:22.566Z,735.77
2017-04-12T07:48:22.552Z,735.83
2017-04-12T07:49:22.537Z,735.83
2017-04-12T07:50:22.528Z,735.78
2017-04-12T07:51:22.509Z,735.72
2017-04-12T07:52:22.496Z,735.79
2017-04-12T07:53:22.481Z,735.45
2017-04-12T07:54:22.467Z,735.83
2017-04-12T07:55:22.453Z,735.59
2017-04-12T07:56:22.438Z,735.82
2017-04-12T07:57:22.421Z,735.77
2017-04-12T07:58:22.408Z,735.57
2017-04-12T07:59:22.395Z,735.86
2017-04-12T08:00:22.380Z,735.87
2017-04-12T08:01:22.364Z,735.84
2017-04-12T08:02:22.350Z,735.93
2017-04-12T08:03:22.336Z,735.72
2017-04-12T08:04:22.327Z,735.86
2017-04-12T08:05:22.307Z,735.81
2017-04-12T08:06:22.293Z,735.84
2017-04-12T08:07:22.276Z,735.81
2017-04-12T08:08:22.263Z,735.84
2017-04-12T08:09:22.248Z,735.85
2017-04-12T08:10:22.234Z,735.93
2017-04-12T08:11:22.219Z,735.93
2017-04-12T08:12:22.210Z,735.88
2017-04-12T08:13:22.191Z,736.06
2017-04-12T08:14:22.176Z,735.73
2017-04-12T08:15:22.161Z,735.85
2017-04-12T08:16:22.146Z,735.77
2017-04-12T08:17:22.133Z,735.71
2017-04-12T08:18:22.118Z,735.8
2017-04-12T08:19:22.103Z,735.92
2017-04-12T08:20:22.090Z,736.02
2017-04-12T08:21:22.076Z,735.71
2017-04-12T08:22:22.062Z,735.81
2017-04-12T08:23:22.047Z,735.76
2017-04-12T08:24:22.031Z,735.87
2017-04-12T08:25:22.018Z,735.81
2017-04-12T08:26:22.005Z,735.82
2017-04-12T08:27:21.991Z,735.71
2017-04-12T08:28:21.978Z,735.77
2017-04-12T08:29:21.960Z,735.74
2017-04-12T08:30:21.948Z,735.65
2017-04-12T08:31:21.934Z,735.75
2017-04-12T08:32:21.920Z,735.8
2017-04-12T08:33:21.904Z,735.8
2017-04-12T08:34:21.893Z,735.63
2017-04-12T08:35:21.876Z,735.69
2017-04-12T08:36:21.863Z,735.85
2017-04-12T08:37:21.847Z,735.83
2017-04-12T08:38:21.833Z,735.89
2017-04-12T08:39:21.819Z,735.92
2017-04-12T08:40:21.843Z,735.83
2017-04-12T08:41:21.793Z,735.89
2017-04-12T08:42:21.778Z,735.85
2017-04-12T08:43:21.765Z,736.02
2017-04-12T08:44:21.749Z,736
2017-04-12T08:45:21.736Z,735.83
2017-04-12T08:46:21.722Z,735.84
2017-04-12T08:47:21.710Z,735.98
2017-04-12T08:48:21.694Z,735.87
2017-04-12T08:49:21.681Z,736.01
2017-04-12T08:50:21.668Z,736.11
2017-04-12T08:51:21.653Z,736.01
2017-04-12T08:52:21.641Z,735.9
2017-04-12T08:53:21.627Z,736
2017-04-12T08:54:21.614Z,736.04
2017-04-12T08:55:21.600Z,736
2017-04-12T08:56:21.587Z,736.04
2017-04-12T08:57:21.572Z,736.03
2017-04-12T08:58:21.558Z,735.91
2017-04-12T08:59:21.548Z,735.92
2017-04-12T09:00:21.532Z,735.96
2017-04-12T09:01:21.518Z,736.02
2017-04-12T09:02:21.502Z,736.04
2017-04-12T09:03:21.487Z,735.96
2017-04-12T09:04:21.475Z,735.95
2017-04-12T09:05:21.461Z,735.99
2017-04-12T09:06:21.446Z,735.97
2017-04-12T09:07:21.431Z,735.97
2017-04-12T09:08:21.417Z,735.96
2017-04-12T09:09:21.402Z,735.87
2017-04-12T09:10:21.390Z,736.11
2017-04-12T09:11:21.376Z,735.97
2017-04-12T09:12:21.361Z,735.99
2017-04-12T09:13:21.347Z,735.98
2017-04-12T09:14:21.334Z,736.09
2017-04-12T09:15:21.319Z,735.98
2017-04-12T09:16:21.308Z,736.08
2017-04-12T09:17:21.292Z,736.02
2017-04-12T09:18:21.276Z,736.05
2017-04-12T09:19:21.263Z,736.04
2017-04-12T09:20:21.247Z,735.96
2017-04-12T09:21:21.232Z,735.97
2017-04-12T09:22:21.217Z,735.98
2017-04-12T09:23:21.203Z,736.08
2017-04-12T09:24:21.187Z,735.95
2017-04-12T09:25:21.172Z,736.01
2017-04-12T09:26:21.159Z,736.05
2017-04-12T09:27:21.144Z,735.98
2017-04-12T09:28:21.129Z,735.91
2017-04-12T09:29:21.114Z,736.06
2017-04-12T09:30:21.101Z,735.91
2017-04-12T09:31:21.084Z,736.04
2017-04-12T09:32:21.073Z,736.04
2017-04-12T09:33:21.059Z,735.9
2017-04-12T09:34:21.045Z,735.95
2017-04-12T09:35:21.030Z,735.97
2017-04-12T09:36:21.016Z,735.83
2017-04-12T09:37:21.007Z,735.88
2017-04-12T09:38:20.989Z,736.05
2017-04-12T09:39:20.974Z,735.98
2017-04-12T09:40:20.960Z,735.93
2017-04-12T09:41:20.947Z,735.9
2017-04-12T09:42:20.933Z,735.98
2017-04-12T09:43:20.919Z,735.93
2017-04-12T09:44:20.905Z,735.99
2017-04-12T09:45:20.891Z,735.95
2017-04-12T09:46:20.877Z,735.99
2017-04-12T09:47:20.863Z,736.01
2017-04-12T09:48:20.848Z,735.94
2017-04-12T09:49:20.836Z,736.04
2017-04-12T09:50:20.822Z,736.05
2017-04-12T09:51:20.808Z,736.04
2017-04-12T09:52:20.794Z,735.87
2017-04-12T09:53:20.780Z,735.95
2017-04-12T09:54:20.766Z,736.05
2017-04-12T09:55:20.754Z,735.94
2017-04-12T09:56:20.740Z,736.05
2017-04-12T09:57:20.727Z,736
2017-04-12T09:58:20.711Z,735.89
2017-04-12T09:59:20.698Z,735.96
2017-04-12T10:00:20.685Z,735.97
2017-04-12T10:01:20.674Z,735.94
2017-04-12T10:02:20.658Z,735.94
2017-04-12T10:03:20.644Z,735.99
2017-04-12T10:04:20.627Z,735.85
2017-04-12T10:05:20.614Z,735.92
2017-04-12T10:06:20.602Z,736
2017-04-12T10:07:20.587Z,736.04
2017-04-12T10:08:20.573Z,735.9
2017-04-12T10:09:20.560Z,736.06
2017-04-12T10:10:20.546Z,736
2017-04-12T10:11:20.532Z,735.92
2017-04-12T10:12:20.517Z,735.9
2017-04-12T10:13:20.504Z,735.96
2017-04-12T10:14:20.490Z,736.04
2017-04-12T10:15:20.474Z,735.73
2017-04-12T10:16:20.460Z,736.11
2017-04-12T10:17:20.446Z,735.8
2017-04-12T10:18:20.431Z,735.91
2017-04-12T10:19:20.415Z,735.87
2017-04-12T10:20:20.401Z,735.88
2017-04-12T10:21:20.386Z,735.81
2017-04-12T10:22:20.370Z,735.9
2017-04-12T10:23:20.358Z,735.8
2017-04-12T10:24:20.339Z,735.88
2017-04-12T10:25:20.324Z,735.83
2017-04-12T10:26:20.308Z,735.85
2017-04-12T10:27:20.294Z,735.77
2017-04-12T10:28:20.279Z,735.78
2017-04-12T10:29:20.263Z,735.75
2017-04-12T10:30:20.248Z,735.79
2017-04-12T10:31:20.233Z,735.79
2017-04-12T10:32:20.219Z,735.95
2017-04-12T10:33:20.204Z,735.91
2017-04-12T10:34:20.191Z,735.81
2017-04-12T10:35:20.176Z,735.9
2017-04-12T10:36:20.161Z,735.71
2017-04-12T10:37:20.145Z,735.78
2017-04-12T10:38:20.132Z,735.78
2017-04-12T10:39:20.118Z,735.72
2017-04-12T10:40:20.104Z,735.84
2017-04-12T10:41:20.089Z,735.79
2017-04-12T10:42:20.077Z,735.85
2017-04-12T10:43:20.063Z,735.84
2017-04-12T10:44:20.048Z,735.87
2017-04-12T10:45:20.036Z,735.94
2017-04-12T10:46:20.023Z,735.89
2017-04-12T10:47:20.008Z,735.9
2017-04-12T10:48:19.994Z,735.81
2017-04-12T10:49:19.982Z,735.85
2017-04-12T10:50:19.969Z,735.81
2017-04-12T10:51:19.956Z,735.81
2017-04-12T10:52:19.942Z,735.84
2017-04-12T10:53:19.928Z,735.96
2017-04-12T10:54:19.916Z,735.83
2017-04-12T10:55:19.902Z,735.75
2017-04-12T10:56:19.889Z,735.84
2017-04-12T10:57:19.875Z,735.78
2017-04-12T10:58:19.863Z,735.74
2017-04-12T10:59:19.848Z,735.78
2017-04-12T11:00:19.835Z,735.82
2017-04-12T11:01:19.822Z,735.77
2017-04-12T11:02:19.809Z,735.84
2017-04-12T11:03:19.796Z,735.78
2017-04-12T11:04:19.783Z,735.79
2017-04-12T11:05:19.772Z,735.82
2017-04-12T11:06:19.758Z,735.88
2017-04-12T11:07:19.747Z,735.77
2017-04-12T11:08:19.735Z,735.85
2017-04-12T11:09:19.722Z,735.8
2017-04-12T11:10:19.710Z,735.81
2017-04-12T11:11:19.697Z,735.86
2017-04-12T11:12:19.687Z,735.86
2017-04-12T11:13:19.674Z,735.84
2017-04-12T11:14:19.661Z,735.83
2017-04-12T11:15:19.651Z,735.88
2017-04-12T11:16:19.638Z,735.82
2017-04-12T11:17:19.624Z,735.79
2017-04-12T11:18:19.613Z,735.77
2017-04-12T11:19:19.600Z,735.74
2017-04-12T11:20:19.612Z,735.81
2017-04-12T11:21:19.574Z,735.8
2017-04-12T11:22:19.563Z,735.76
2017-04-12T11:23:19.551Z,735.85
2017-04-12T11:24:19.538Z,735.7
2017-04-12T11:25:19.527Z,735.85
2017-04-12T11:26:19.514Z,735.86
2017-04-12T11:27:19.503Z,735.74
2017-04-12T11:28:19.490Z,735.73
2017-04-12T11:29:19.478Z,735.79
2017-04-12T11:30:19.466Z,735.8
2017-04-12T11:31:19.456Z,735.85
2017-04-12T11:32:19.442Z,735.77
2017-04-12T11:33:19.428Z,735.81
2017-04-12T11:34:19.422Z,735.77
2017-04-12T11:35:19.406Z,735.69
2017-04-12T11:36:19.391Z,735.73
2017-04-12T11:37:19.382Z,735.77
2017-04-12T11:38:19.369Z,735.83
2017-04-12T11:39:19.354Z,735.72
2017-04-12T11:40:19.341Z,735.7
2017-04-12T11:41:19.331Z,735.69
2017-04-12T11:42:19.320Z,735.46
2017-04-12T11:43:19.307Z,735.64
2017-04-12T11:44:19.294Z,735.61
2017-04-12T11:45:19.282Z,735.65
2017-04-12T11:46:19.270Z,735.67
2017-04-12T11:47:19.257Z,735.6
2017-04-12T11:48:19.245Z,735.64
2017-04-12T11:49:19.234Z,735.7
2017-04-12T11:50:19.222Z,735.68
2017-04-12T11:51:19.210Z,735.61
2017-04-12T11:52:19.198Z,735.63
2017-04-12T11:53:19.186Z,735.64
2017-04-12T11:54:19.173Z,735.65
2017-04-12T11:55:19.163Z,735.65
2017-04-12T11:56:19.150Z,735.56
2017-04-12T11:57:19.140Z,735.47
2017-04-12T11:58:19.127Z,735.61
2017-04-12T11:59:19.118Z,735.63
2017-04-12T12:00:19.107Z,735.63
2017-04-12T12:01:19.095Z,735.67
2017-04-12T12:02:19.082Z,735.56
2017-04-12T12:03:19.072Z,735.54
2017-04-12T12:04:19.060Z,735.68
2017-04-12T12:05:19.049Z,735.7
2017-04-12T12:06:19.038Z,735.66
2017-04-12T12:07:19.028Z,735.61
2017-04-12T12:08:19.016Z,735.6
2017-04-12T12:09:19.004Z,735.62
2017-04-12T12:10:18.994Z,735.62
2017-04-12T12:11:18.983Z,735.58
2017-04-12T12:12:18.970Z,735.56
2017-04-12T12:13:18.958Z,735.52
2017-04-12T12:14:18.947Z,735.56
2017-04-12T12:15:18.937Z,735.52
2017-04-12T12:16:18.924Z,735.57
2017-04-12T12:17:18.913Z,735.53
2017-04-12T12:18:18.902Z,735.54
2017-04-12T12:19:18.891Z,735.5
2017-04-12T12:20:18.881Z,735.56
2017-04-12T12:21:18.870Z,735.52
2017-04-12T12:22:18.863Z,735.52
2017-04-12T12:23:18.849Z,735.39
2017-04-12T12:24:18.838Z,735.52
2017-04-12T12:25:18.829Z,735.48
2017-04-12T12:26:18.819Z,735.53
2017-04-12T12:27:18.808Z,735.54
2017-04-12T12:28:18.796Z,735.42
2017-04-12T12:29:18.787Z,735.47
2017-04-12T12:30:18.776Z,735.44
2017-04-12T12:31:18.765Z,735.39